Time;durP1;ratioP1;P1;durP2;ratioP2;P2;SDS_P1;SDS_P2;PMS_P1;PMS_P2;Temp;Humidity;BMP_temperature;BMP_pressure;BME280_temperature;BME280_humidity;BME280_pressure;Samples;Min_cycle;Max_cycle;Signal;HPM_P1;HPM_P2
2023/10/30 02:14:18;;;;;;;2.60;0.63;;;12.00;99.90;;;;;;5034209;28;20052;-90
2023/10/30 08:48:48;;;;;;;1.20;0.60;;;12.30;99.90;;;;;;5019176;28;20157;-89
2023/10/30 08:51:13;;;;;;;2.42;0.70;;;12.40;99.90;;;;;;4999566;28;20489;-87
2023/10/30 08:53:39;;;;;;;2.25;0.82;;;12.00;99.90;;;;;;5004319;28;20056;-88
2023/10/30 08:56:05;;;;;;;1.25;0.68;;;12.30;99.90;;;;;;5021086;28;20014;-87
2023/10/30 08:58:31;;;;;;;1.00;0.70;;;12.30;99.90;;;;;;4995652;28;20026;-89
2023/10/30 09:00:58;;;;;;;1.48;0.70;;;12.30;99.90;;;;;;5001408;28;20044;-88
2023/10/30 09:03:23;;;;;;;2.35;0.90;;;14.20;99.90;;;;;;4998853;28;20026;-89
2023/10/30 09:05:49;;;;;;;2.33;1.40;;;13.50;99.90;;;;;;4999301;28;20046;-89
2023/10/30 09:08:14;;;;;;;4.25;1.30;;;12.40;99.90;;;;;;5018720;28;20065;-85
2023/10/30 09:10:40;;;;;;;2.78;1.38;;;13.20;99.90;;;;;;5001162;28;20022;-87
2023/10/30 09:13:06;;;;;;;1.55;0.93;;;12.40;99.90;;;;;;4996548;28;20238;-89
2023/10/30 09:15:32;;;;;;;1.98;1.02;;;12.40;99.90;;;;;;5015178;28;20105;-89
2023/10/30 09:17:57;;;;;;;2.28;1.00;;;12.60;99.90;;;;;;4998580;28;20021;-89
2023/10/30 09:20:23;;;;;;;2.45;0.90;;;13.30;99.90;;;;;;4980817;28;20019;-88
2023/10/30 09:22:49;;;;;;;3.22;1.20;;;12.40;99.90;;;;;;5015509;28;20038;-90
2023/10/30 09:25:14;;;;;;;2.70;1.17;;;12.40;99.90;;;;;;5015204;28;20030;-88
2023/10/30 09:27:40;;;;;;;1.85;0.88;;;13.10;99.90;;;;;;5014447;28;20049;-88
2023/10/30 09:30:06;;;;;;;2.40;0.80;;;12.50;99.90;;;;;;4999561;28;20030;-88
2023/10/30 09:32:32;;;;;;;2.53;1.15;;;12.50;99.90;;;;;;5019006;28;20025;-87
2023/10/30 09:34:59;;;;;;;1.95;1.17;;;12.60;99.90;;;;;;5020540;28;20032;-86
2023/10/30 09:37:25;;;;;;;4.82;1.23;;;13.70;99.90;;;;;;5023695;28;20038;-89
2023/10/30 09:39:51;;;;;;;4.10;0.80;;;13.70;99.90;;;;;;5019576;28;20037;-88
2023/10/30 09:42:17;;;;;;;1.63;0.70;;;12.70;99.90;;;;;;4993760;28;20049;-86
2023/10/30 09:44:43;;;;;;;1.52;0.80;;;14.10;99.90;;;;;;4989088;28;20010;-87
2023/10/30 09:47:10;;;;;;;1.70;0.77;;;13.10;99.90;;;;;;4997862;28;20042;-88
2023/10/30 09:49:36;;;;;;;1.55;0.80;;;13.70;99.90;;;;;;4999044;28;20022;-87
2023/10/30 09:52:05;;;;;;;1.05;0.77;;;12.80;99.90;;;;;;5015225;28;20034;-88
2023/10/30 09:54:32;;;;;;;2.55;0.77;;;12.90;99.90;;;;;;4996066;28;20042;-88
2023/10/30 09:57:01;;;;;;;1.48;0.73;;;13.10;99.90;;;;;;4993104;28;20018;-89
2023/10/30 09:59:26;;;;;;;2.05;0.80;;;12.90;99.90;;;;;;4982822;28;20026;-88
2023/10/30 10:01:52;;;;;;;1.80;0.73;;;12.90;99.90;;;;;;4967456;28;20034;-88
2023/10/30 10:04:18;;;;;;;1.65;0.70;;;13.00;99.90;;;;;;4978160;28;20081;-88
2023/10/30 10:06:45;;;;;;;1.08;0.68;;;12.90;99.90;;;;;;4990693;28;20037;-87
2023/10/30 10:09:10;;;;;;;1.83;1.08;;;13.00;99.90;;;;;;4977346;28;20367;-88
2023/10/30 10:11:37;;;;;;;3.00;0.85;;;13.10;99.90;;;;;;4995403;28;20033;-89
2023/10/30 10:14:04;;;;;;;1.33;0.73;;;13.10;99.90;;;;;;4993379;28;20023;-89
2023/10/30 10:16:30;;;;;;;1.60;0.88;;;13.10;99.90;;;;;;4973496;28;20410;-90
2023/10/30 10:18:56;;;;;;;1.58;0.75;;;13.10;99.90;;;;;;5005633;28;20054;-87
2023/10/30 10:21:22;;;;;;;1.15;0.63;;;13.10;99.90;;;;;;5013350;28;20132;-87
2023/10/30 10:23:48;;;;;;;1.92;0.85;;;13.70;99.90;;;;;;4998598;28;20112;-89
2023/10/30 10:26:14;;;;;;;1.67;0.70;;;13.10;99.90;;;;;;5008099;28;20049;-89
2023/10/30 10:28:46;;;;;;;2.55;1.00;;;13.50;99.90;;;;;;5021274;28;20044;-86
2023/10/30 10:31:12;;;;;;;2.42;0.70;;;13.20;99.90;;;;;;4996834;28;20113;-91
2023/10/30 10:33:37;;;;;;;1.30;0.80;;;13.10;99.90;;;;;;5000043;28;20022;-89
2023/10/30 10:36:04;;;;;;;1.60;0.80;;;13.00;99.90;;;;;;5010112;28;20033;-87
2023/10/30 10:38:33;;;;;;;1.10;0.77;;;13.00;99.90;;;;;;5011199;28;20053;-88
2023/10/30 10:40:59;;;;;;;1.38;0.80;;;13.80;99.90;;;;;;4992204;28;20029;-90
2023/10/30 10:43:28;;;;;;;1.77;1.00;;;12.90;99.90;;;;;;5006676;28;20030;-88
2023/10/30 10:45:55;;;;;;;0.95;0.70;;;13.00;99.90;;;;;;5002339;28;20096;-89
2023/10/30 10:48:25;;;;;;;2.28;0.80;;;13.00;99.90;;;;;;5000929;28;20049;-90
2023/10/30 10:50:53;;;;;;;1.05;0.63;;;13.90;99.90;;;;;;5005044;28;20049;-88
2023/10/30 10:53:19;;;;;;;1.33;0.70;;;13.10;99.90;;;;;;5026162;28;20163;-89
2023/10/30 10:55:47;;;;;;;3.30;0.93;;;13.50;99.90;;;;;;5008283;28;20080;-89
2023/10/30 10:58:34;;;;;;;1.20;0.70;;;13.10;99.90;;;;;;5018611;28;20037;-89
2023/10/30 11:01:02;;;;;;;1.45;0.80;;;13.30;99.90;;;;;;5057762;22;20121;-90
2023/10/30 11:03:28;;;;;;;1.08;0.80;;;13.30;99.90;;;;;;5040947;28;20048;-90
2023/10/30 11:06:00;;;;;;;1.05;0.82;;;13.90;99.90;;;;;;5049122;28;20013;-89
2023/10/30 11:08:53;;;;;;;2.72;0.80;;;13.50;99.90;;;;;;5046376;28;20029;-89
2023/10/30 11:11:41;;;;;;;8.73;1.23;;;13.60;99.90;;;;;;5047206;28;20014;-90
2023/10/30 11:14:29;;;;;;;0.90;0.70;;;13.70;99.90;;;;;;5054957;28;20025;-88
2023/10/30 11:17:02;;;;;;;4.32;1.20;;;13.70;99.90;;;;;;5046039;28;20018;-88
2023/10/30 11:19:28;;;;;;;1.42;0.80;;;13.70;99.90;;;;;;5052533;28;20057;-88
2023/10/30 11:21:54;;;;;;;1.77;1.15;;;13.80;99.90;;;;;;5050191;28;20420;-90
2023/10/30 11:24:37;;;;;;;1.00;0.70;;;13.70;99.90;;;;;;5044835;28;20022;-90
2023/10/30 11:27:26;;;;;;;1.40;0.80;;;13.80;99.90;;;;;;5043745;28;20049;-90
2023/10/30 11:30:11;;;;;;;1.20;0.80;;;13.70;99.90;;;;;;5029038;28;20041;-87
2023/10/30 11:32:52;;;;;;;1.30;0.77;;;13.70;99.90;;;;;;5046459;28;20044;-88
2023/10/30 11:35:23;;;;;;;0.65;0.60;;;14.50;99.90;;;;;;5044359;28;20214;-88
2023/10/30 11:37:49;;;;;;;;;;;13.60;99.90;;;;;;5048734;28;20773;-87
2023/10/30 11:40:17;;;;;;;1.50;0.77;;;13.60;99.90;;;;;;5050140;28;19909;-88
2023/10/30 11:42:43;;;;;;;1.70;1.00;;;13.60;99.90;;;;;;5018595;28;20492;-88
2023/10/30 11:45:26;;;;;;;2.60;0.90;;;13.60;99.90;;;;;;5035723;28;20061;-86
2023/10/30 11:48:01;;;;;;;2.58;0.88;;;13.60;99.90;;;;;;5037364;28;20044;-90
2023/10/30 11:50:34;;;;;;;2.10;0.77;;;13.60;99.90;;;;;;5040049;28;20021;-88
2023/10/30 11:53:07;;;;;;;1.35;0.82;;;13.60;99.90;;;;;;5034764;28;20056;-88
2023/10/30 11:55:39;;;;;;;1.65;0.90;;;13.60;99.90;;;;;;5032203;28;20025;-88
2023/10/30 11:58:07;;;;;;;4.65;1.10;;;14.10;99.90;;;;;;5054286;28;20041;-89
2023/10/30 12:00:33;;;;;;;1.33;0.80;;;14.70;99.90;;;;;;5035514;28;20022;-86
2023/10/30 12:03:00;;;;;;;0.88;0.80;;;13.80;99.90;;;;;;5036031;28;20040;-89
2023/10/30 12:05:27;;;;;;;1.63;0.93;;;13.70;99.90;;;;;;5034404;28;20098;-89
2023/10/30 12:07:52;;;;;;;3.97;0.90;;;13.70;99.90;;;;;;5035844;28;20038;-89
2023/10/30 12:10:18;;;;;;;2.50;0.88;;;13.70;99.90;;;;;;5031881;28;20031;-90
2023/10/30 12:12:44;;;;;;;3.38;0.90;;;13.80;99.90;;;;;;5033339;28;20160;-89
2023/10/30 12:15:10;;;;;;;1.83;0.98;;;14.80;99.90;;;;;;5036179;28;20034;-88
2023/10/30 12:17:36;;;;;;;1.52;0.90;;;13.90;99.90;;;;;;5035766;28;20029;-89
2023/10/30 12:20:15;;;;;;;3.47;0.90;;;13.90;99.90;;;;;;5030569;28;20033;-87
2023/10/30 12:22:43;;;;;;;1.50;0.70;;;13.60;99.90;;;;;;5036030;28;20061;-89
2023/10/30 12:25:14;;;;;;;1.70;0.70;;;14.00;99.90;;;;;;5043909;28;20029;-89
2023/10/30 12:27:40;;;;;;;2.40;0.88;;;14.00;99.90;;;;;;5043248;28;20079;-89
2023/10/30 12:30:10;;;;;;;1.85;0.88;;;14.00;99.90;;;;;;5041789;28;20060;-88
2023/10/30 12:32:36;;;;;;;4.43;0.93;;;14.00;99.90;;;;;;5038250;28;20030;-89
2023/10/30 12:35:16;;;;;;;1.33;0.90;;;14.80;99.90;;;;;;5040313;28;20081;-88
2023/10/30 12:37:41;;;;;;;2.35;1.00;;;14.00;99.90;;;;;;5034410;28;21125;-89
2023/10/30 12:40:12;;;;;;;2.15;1.15;;;14.00;99.90;;;;;;5044462;28;20037;-89
2023/10/30 12:42:43;;;;;;;2.00;1.00;;;14.00;99.90;;;;;;5040905;28;20097;-87
2023/10/30 12:45:15;;;;;;;3.17;1.23;;;14.10;99.90;;;;;;5037744;28;20018;-90
2023/10/30 12:47:42;;;;;;;4.13;1.02;;;14.10;99.90;;;;;;5042976;28;20048;-88
2023/10/30 12:50:10;;;;;;;1.50;0.85;;;14.10;99.90;;;;;;5044991;28;20043;-88
2023/10/30 12:52:41;;;;;;;2.47;0.88;;;14.10;99.90;;;;;;5038069;28;20068;-89
2023/10/30 12:55:07;;;;;;;2.50;1.10;;;14.10;99.90;;;;;;5042197;28;20055;-89
2023/10/30 12:57:34;;;;;;;2.10;0.95;;;14.10;99.90;;;;;;5042121;28;20935;-88
2023/10/30 13:00:00;;;;;;;2.17;1.30;;;14.20;99.90;;;;;;5043359;28;20120;-89
2023/10/30 13:02:27;;;;;;;2.70;1.10;;;14.20;99.90;;;;;;5039148;28;20053;-90
2023/10/30 13:04:53;;;;;;;4.05;1.35;;;14.40;99.90;;;;;;5044580;28;20101;-89
2023/10/30 13:07:19;;;;;;;3.50;1.10;;;14.60;99.90;;;;;;5043035;28;20014;-88
2023/10/30 13:09:48;;;;;;;3.70;1.25;;;14.60;99.90;;;;;;5042650;28;20326;-90
2023/10/30 13:12:14;;;;;;;3.67;1.17;;;14.30;99.90;;;;;;5038496;28;20442;-89
2023/10/30 13:14:40;;;;;;;2.78;1.15;;;14.30;99.90;;;;;;5043698;28;20098;-88
2023/10/30 13:17:06;;;;;;;3.42;1.30;;;14.40;99.90;;;;;;5048172;28;20046;-88
2023/10/30 13:19:31;;;;;;;4.00;1.98;;;14.30;99.90;;;;;;5048211;28;20014;-89
2023/10/30 13:22:00;;;;;;;4.85;1.20;;;14.30;99.90;;;;;;5044016;28;20038;-89
2023/10/30 13:24:26;;;;;;;3.50;1.30;;;14.60;99.90;;;;;;5034494;28;20264;-89
2023/10/30 13:26:55;;;;;;;5.30;1.98;;;14.40;99.90;;;;;;5042480;28;20030;-88
2023/10/30 13:29:21;;;;;;;2.72;1.23;;;13.60;99.90;;;;;;5023590;28;20022;-88
2023/10/30 13:31:47;;;;;;;5.68;1.33;;;14.30;99.90;;;;;;5043558;28;20041;-88
2023/10/30 13:34:13;;;;;;;5.00;1.40;;;14.30;99.90;;;;;;5038723;28;21088;-87
2023/10/30 13:36:38;;;;;;;6.15;1.60;;;14.30;99.90;;;;;;5038717;28;20035;-87
2023/10/30 13:39:04;;;;;;;3.38;1.60;;;14.30;99.90;;;;;;5020578;28;20128;-88
2023/10/30 13:41:30;;;;;;;3.40;1.38;;;14.30;99.90;;;;;;5039453;28;20037;-88
2023/10/30 13:43:58;;;;;;;3.47;1.45;;;14.40;99.90;;;;;;5040243;28;20089;-89
2023/10/30 13:46:24;;;;;;;4.35;1.35;;;14.20;99.90;;;;;;5039136;28;20022;-89
2023/10/30 13:48:50;;;;;;;3.83;2.05;;;14.30;99.90;;;;;;5040028;28;20051;-89
2023/10/30 13:51:15;;;;;;;5.75;2.03;;;14.30;99.90;;;;;;5035091;28;20056;-90
2023/10/30 13:53:41;;;;;;;2.53;1.38;;;14.30;99.90;;;;;;5030975;28;20017;-88
2023/10/30 13:56:07;;;;;;;3.20;1.10;;;15.30;99.90;;;;;;5020734;28;20681;-90
2023/10/30 13:58:33;;;;;;;5.22;1.60;;;14.30;99.90;;;;;;5020563;28;20120;-91
2023/10/30 14:00:59;;;;;;;3.53;1.80;;;14.40;99.90;;;;;;5028145;28;20025;-89
2023/10/30 14:03:24;;;;;;;2.72;1.50;;;14.50;99.90;;;;;;5023539;28;20053;-88
2023/10/30 14:05:51;;;;;;;3.70;1.58;;;14.40;99.90;;;;;;5007250;28;20732;-88
2023/10/30 14:08:18;;;;;;;5.03;1.77;;;14.40;99.90;;;;;;5007706;28;20120;-88
2023/10/30 14:10:44;;;;;;;3.35;1.50;;;14.40;99.90;;;;;;5021314;28;20034;-88
2023/10/30 14:13:09;;;;;;;3.20;1.58;;;14.40;99.90;;;;;;5020755;28;20033;-88
2023/10/30 14:15:35;;;;;;;3.60;1.40;;;14.40;99.90;;;;;;5020650;28;20399;-88
2023/10/30 14:18:02;;;;;;;2.60;1.40;;;14.50;99.90;;;;;;5015860;28;20144;-86
2023/10/30 14:20:27;;;;;;;3.63;1.40;;;14.30;99.90;;;;;;5009153;28;20040;-88
2023/10/30 14:22:53;;;;;;;3.38;1.77;;;14.30;99.90;;;;;;5023418;28;20041;-87
2023/10/30 14:25:19;;;;;;;5.28;1.70;;;14.30;99.90;;;;;;5031461;28;20029;-89
2023/10/30 14:27:45;;;;;;;4.97;2.20;;;14.30;99.90;;;;;;5022624;28;20039;-88
2023/10/30 14:30:11;;;;;;;7.82;3.50;;;14.30;99.90;;;;;;5031053;28;20077;-88
2023/10/30 14:32:36;;;;;;;5.32;2.45;;;14.30;99.90;;;;;;5026817;28;20635;-88
2023/10/30 14:35:04;;;;;;;6.47;2.03;;;14.20;99.90;;;;;;5021050;28;20037;-87
2023/10/30 14:37:30;;;;;;;3.83;2.00;;;14.30;99.90;;;;;;5021062;28;20045;-88
2023/10/30 14:39:56;;;;;;;6.72;1.80;;;14.30;99.90;;;;;;5015710;28;20025;-87
2023/10/30 14:42:22;;;;;;;6.18;1.85;;;14.30;99.90;;;;;;5015229;28;20033;-87
2023/10/30 14:44:48;;;;;;;3.80;1.80;;;14.20;99.90;;;;;;5018840;28;20029;-88
2023/10/30 14:47:14;;;;;;;4.72;1.92;;;14.20;99.90;;;;;;5022050;28;20269;-87
2023/10/30 14:49:40;;;;;;;3.53;2.03;;;14.20;99.90;;;;;;5006718;28;21015;-88
2023/10/30 14:52:06;;;;;;;3.08;1.98;;;14.20;99.90;;;;;;5024539;28;20122;-89
2023/10/30 14:54:32;;;;;;;4.53;2.20;;;14.20;99.90;;;;;;5013575;28;20468;-87
2023/10/30 14:56:58;;;;;;;4.78;2.58;;;14.10;99.90;;;;;;5017927;28;20026;-88
2023/10/30 14:59:24;;;;;;;4.65;2.08;;;14.10;99.90;;;;;;5010736;28;20037;-89
2023/10/30 15:01:50;;;;;;;3.58;1.73;;;14.10;99.90;;;;;;5024426;28;20056;-90
2023/10/30 15:04:16;;;;;;;5.25;2.65;;;14.10;99.90;;;;;;5019741;28;20045;-87
2023/10/30 15:06:41;;;;;;;4.47;2.00;;;14.10;99.90;;;;;;5017527;28;20108;-87
2023/10/30 15:09:10;;;;;;;6.40;1.90;;;14.40;99.90;;;;;;5011449;28;20033;-89
2023/10/30 15:11:35;;;;;;;4.75;2.30;;;15.20;99.90;;;;;;5023759;28;20646;-87
2023/10/30 15:14:01;;;;;;;4.38;2.38;;;14.30;99.90;;;;;;5025292;28;20037;-89
2023/10/30 15:16:26;;;;;;;6.68;2.88;;;14.00;99.90;;;;;;5023619;28;20040;-88
2023/10/30 15:18:52;;;;;;;6.10;2.42;;;;;;;;;;5032477;28;20026;-88
2023/10/30 15:21:18;;;;;;;7.35;2.85;;;14.00;99.90;;;;;;5029297;28;20033;-89
2023/10/30 15:23:44;;;;;;;5.22;2.58;;;14.80;99.90;;;;;;5032208;28;20030;-88
2023/10/30 15:26:09;;;;;;;4.90;2.45;;;13.90;99.90;;;;;;5026880;28;20089;-89
2023/10/30 15:28:35;;;;;;;6.95;2.40;;;13.90;99.90;;;;;;5024432;28;20089;-87
2023/10/30 15:31:01;;;;;;;4.50;2.60;;;14.20;99.90;;;;;;5037231;28;20032;-89
2023/10/30 15:33:31;;;;;;;4.65;2.45;;;13.90;99.90;;;;;;5033511;28;20037;-87
2023/10/30 15:35:57;;;;;;;4.90;1.90;;;;;;;;;;5028834;28;20030;-88
2023/10/30 15:38:22;;;;;;;5.22;1.90;;;13.90;99.90;;;;;;5037643;28;20025;-88
2023/10/30 15:40:49;;;;;;;5.63;1.90;;;13.90;99.90;;;;;;5039763;28;20080;-88
2023/10/30 15:43:14;;;;;;;2.92;1.67;;;13.90;99.90;;;;;;5036629;28;20041;-88
2023/10/30 15:45:40;;;;;;;4.45;1.70;;;14.00;99.90;;;;;;5032679;28;20042;-89
2023/10/30 15:48:16;;;;;;;4.38;1.85;;;14.00;99.90;;;;;;5029677;28;20033;-89
2023/10/30 15:50:42;;;;;;;4.68;2.00;;;14.00;99.90;;;;;;5024252;28;20017;-89
2023/10/30 15:53:11;;;;;;;11.05;6.25;;;14.30;99.90;;;;;;5032833;28;20056;-90
2023/10/30 15:55:37;;;;;;;2.83;1.65;;;14.20;99.90;;;;;;5031336;28;20036;-89
2023/10/30 15:58:03;;;;;;;7.32;2.22;;;14.00;99.90;;;;;;5016757;28;20585;-89
2023/10/30 16:00:29;;;;;;;3.33;1.90;;;14.00;99.90;;;;;;5032662;28;20025;-89
2023/10/30 16:02:57;;;;;;;2.65;1.88;;;14.00;99.90;;;;;;5029807;28;20041;-89
2023/10/30 16:05:23;;;;;;;6.05;2.17;;;13.90;99.90;;;;;;5033665;28;20021;-88
2023/10/30 16:07:49;;;;;;;7.30;3.00;;;13.90;99.90;;;;;;5032815;28;20567;-89
2023/10/30 16:10:15;;;;;;;6.50;3.20;;;13.80;99.90;;;;;;5034380;28;20021;-89
2023/10/30 16:12:41;;;;;;;6.45;3.80;;;13.70;99.90;;;;;;5030646;28;20084;-89
2023/10/30 16:15:09;;;;;;;6.03;2.88;;;13.70;99.90;;;;;;5034159;28;20040;-89
2023/10/30 16:17:35;;;;;;;6.65;2.88;;;13.70;99.90;;;;;;5026408;28;20222;-90
2023/10/30 16:20:05;;;;;;;4.80;2.92;;;13.70;99.90;;;;;;5035661;28;20088;-88
2023/10/30 16:22:34;;;;;;;5.63;3.00;;;;;;;;;;5034979;28;21576;-88
2023/10/30 16:25:00;;;;;;;4.80;2.70;;;13.60;99.90;;;;;;5035790;28;20033;-85
2023/10/30 16:27:26;;;;;;;6.55;2.92;;;13.60;99.90;;;;;;5031942;28;20487;-89
2023/10/30 16:29:51;;;;;;;6.40;2.80;;;13.60;99.90;;;;;;5032475;28;20069;-88
2023/10/30 16:32:17;;;;;;;6.93;3.05;;;;;;;;;;5029520;28;20056;-87
2023/10/30 16:34:43;;;;;;;4.65;3.00;;;13.50;99.90;;;;;;5034039;28;20043;-88
2023/10/30 16:37:09;;;;;;;8.02;3.70;;;;;;;;;;5029246;28;20088;-89
2023/10/30 16:39:35;;;;;;;6.38;3.08;;;13.40;99.90;;;;;;5038877;28;20048;-87
2023/10/30 16:42:01;;;;;;;7.57;2.78;;;13.40;99.90;;;;;;5036733;28;20033;-87
2023/10/30 16:44:27;;;;;;;5.93;3.03;;;13.40;99.90;;;;;;5039876;28;20053;-88
2023/10/30 16:46:52;;;;;;;8.88;3.40;;;13.40;99.90;;;;;;5025176;28;20398;-89
2023/10/30 16:49:19;;;;;;;7.03;3.42;;;;;;;;;;5024001;28;20045;-90
2023/10/30 16:51:44;;;;;;;6.93;3.53;;;13.40;99.90;;;;;;5003651;28;20056;-88
2023/10/30 16:54:11;;;;;;;7.18;3.40;;;13.40;99.90;;;;;;5027788;28;20025;-88
2023/10/30 16:56:37;;;;;;;8.63;3.50;;;13.40;99.90;;;;;;5037395;28;20033;-88
2023/10/30 16:59:03;;;;;;;6.95;3.17;;;13.40;99.90;;;;;;5035620;28;20037;-88
2023/10/30 17:01:30;;;;;;;8.30;3.30;;;13.40;99.90;;;;;;5030711;28;20040;-89
2023/10/30 17:03:56;;;;;;;8.07;4.15;;;;;;;;;;5017385;28;20714;-90
2023/10/30 17:06:22;;;;;;;7.75;3.42;;;13.30;99.90;;;;;;5038622;28;20030;-88
2023/10/30 17:08:48;;;;;;;6.28;3.35;;;13.30;99.90;;;;;;5026499;28;20165;-89
2023/10/30 17:11:15;;;;;;;6.65;3.40;;;13.30;99.90;;;;;;5019410;28;20038;-86
2023/10/30 17:13:41;;;;;;;10.30;4.03;;;13.30;99.90;;;;;;5014891;28;20039;-88
2023/10/30 17:16:07;;;;;;;7.50;3.60;;;13.30;99.90;;;;;;5026471;28;20025;-90
2023/10/30 17:18:33;;;;;;;6.85;3.58;;;13.20;99.90;;;;;;5021819;28;20025;-90
2023/10/30 17:21:05;;;;;;;6.78;3.55;;;13.20;99.90;;;;;;5015458;28;20407;-90
2023/10/30 17:23:37;;;;;;;8.85;3.88;;;13.20;99.90;;;;;;5015464;28;20033;-90
2023/10/30 17:26:04;;;;;;;6.38;3.85;;;13.20;99.90;;;;;;5030586;28;20037;-87
2023/10/30 17:28:31;;;;;;;6.57;2.95;;;13.20;99.90;;;;;;5018917;28;20437;-90
2023/10/30 17:30:57;;;;;;;8.93;3.58;;;13.20;99.90;;;;;;5028337;28;20637;-89
2023/10/30 17:33:23;;;;;;;6.60;3.08;;;13.30;99.90;;;;;;5024555;28;20030;-89
2023/10/30 17:35:49;;;;;;;28.73;16.75;;;13.30;99.90;;;;;;5025109;28;20033;-84
2023/10/30 17:38:14;;;;;;;16.77;9.98;;;13.30;99.90;;;;;;5022736;28;20032;-88
2023/10/30 17:40:40;;;;;;;7.80;3.97;;;13.30;99.90;;;;;;5026143;28;20041;-88
2023/10/30 17:43:06;;;;;;;5.60;3.10;;;14.40;99.90;;;;;;5022016;28;20025;-88
2023/10/30 17:45:32;;;;;;;5.85;3.40;;;;;;;;;;5010458;28;20042;-88
2023/10/30 17:47:59;;;;;;;8.43;3.90;;;13.30;99.90;;;;;;5016897;28;20021;-85
2023/10/30 17:50:25;;;;;;;6.18;3.35;;;13.30;99.90;;;;;;5019402;28;20320;-87
2023/10/30 17:52:51;;;;;;;6.15;3.92;;;13.30;99.90;;;;;;5026327;28;20044;-86
2023/10/30 17:55:17;;;;;;;6.53;3.53;;;13.30;99.90;;;;;;5024727;28;20101;-90
2023/10/30 17:57:44;;;;;;;5.60;3.50;;;13.30;99.90;;;;;;5026657;28;20044;-86
2023/10/30 18:00:10;;;;;;;4.30;2.83;;;13.40;99.90;;;;;;5020479;28;20055;-88
2023/10/30 18:02:36;;;;;;;5.28;3.03;;;13.40;99.90;;;;;;5023592;28;20056;-90
2023/10/30 18:05:01;;;;;;;5.88;2.60;;;13.20;99.90;;;;;;5030997;28;20033;-90
2023/10/30 18:07:27;;;;;;;5.75;2.92;;;13.40;99.90;;;;;;5021223;28;20176;-89
2023/10/30 18:09:53;;;;;;;6.13;2.70;;;13.40;99.90;;;;;;5025393;28;20028;-88
2023/10/30 18:12:20;;;;;;;5.32;2.15;;;13.50;99.90;;;;;;5025515;28;20030;-88
2023/10/30 18:14:45;;;;;;;5.55;2.30;;;13.40;99.90;;;;;;5021844;28;20040;-89
2023/10/30 18:17:11;;;;;;;4.50;2.75;;;13.40;99.90;;;;;;5029725;28;20030;-88
2023/10/30 18:19:37;;;;;;;5.20;2.80;;;11.30;99.90;;;;;;5023871;28;20030;-87
2023/10/30 18:22:03;;;;;;;7.57;3.28;;;13.40;99.90;;;;;;5027048;28;20029;-87
2023/10/30 18:24:29;;;;;;;9.65;4.00;;;;;;;;;;5033294;28;20029;-86
2023/10/30 18:26:57;;;;;;;30.45;13.18;;;;;;;;;;5044300;28;20018;-89
2023/10/30 18:29:32;;;;;;;11.88;5.13;;;13.20;99.90;;;;;;5046590;28;20022;-89
